CSP2 weather

Stony Plain (Westview Health Centre) Heliport
Stony Plain, Alberta, Canada

Public forecast

Using degrees Celsius for public forecast. Weather courtesy of forecast.io.

METAR (pilot weather report)

Closest report is Edmonton / Villeneuve Airport, 9.0 nm (16.6 km) NNE. Retrieved 2019/09/15 08:00 UTC (47 minutes ago):

CZVL 150800Z AUTO 00000KT 9SM SCT230 BKN250 08/07 A2964 RMK SLP043

TAF (pilot weather forecast)

Closest forecast is Edmonton / Villeneuve Airport, 9.0 nm (16.6 km) NNE. Retrieved 2019/09/15 06:00 UTC (3 hours ago):

TAF CZVL 150538Z 1506/1518 VRB03KT P6SM BKN240 BECMG 1507/1509 18005KT RMK FCST BASED ON AUTO OBS. NXT FCST BY 151200Z